Alpine Haven, Vermont
Current Conditions -  °F | °C
As of 7:55 PM on Sunday 23 Nov 2014 (Local Time) from KEFK Reporting Station
Overcast Overcast  
Wind Chill: 38°   Ceiling: 4800
Heat Index: 38°   Visibility: 7mi
Dew Point: 37°   Wind: 0mph
Humidity: 95%   Direction: NA
Pressure: 30.05"   Gusts: NA
Location:  44.8557°N, 72.6016°W
Report Text: KEFK 240055Z AUTO 00000KT 7SM OVC048 03/03 A3005 RMK AO2 T00320025
Loading
Personal Weather Stations






























Interactive Weather Map New forecast layout! Learn more

10-Day Weather Forecast

Advertisements
Track Severe Weather on mobile